sensor_id;sensor_type;location;lat;lon;timestamp;P1;durP1;ratioP1;P2;durP2;ratioP2
39882;SDS011;55824;52.220;21.040;2022-12-07T00:01:30;6.07;;;5.22;;
39882;SDS011;55824;52.220;21.040;2022-12-07T00:03:57;6.10;;;5.40;;
39882;SDS011;55824;52.220;21.040;2022-12-07T00:06:29;6.82;;;5.88;;
39882;SDS011;55824;52.220;21.040;2022-12-07T00:08:56;7.18;;;5.65;;
39882;SDS011;55824;52.220;21.040;2022-12-07T00:11:22;6.07;;;5.30;;
39882;SDS011;55824;52.220;21.040;2022-12-07T00:13:54;6.35;;;5.28;;
39882;SDS011;55824;52.220;21.040;2022-12-07T00:16:21;6.28;;;5.38;;
39882;SDS011;55824;52.220;21.040;2022-12-07T00:18:47;6.47;;;5.05;;
39882;SDS011;55824;52.220;21.040;2022-12-07T00:21:18;6.30;;;5.45;;
39882;SDS011;55824;52.220;21.040;2022-12-07T00:23:45;6.50;;;5.85;;
39882;SDS011;55824;52.220;21.040;2022-12-07T00:26:12;7.03;;;6.05;;
39882;SDS011;55824;52.220;21.040;2022-12-07T00:28:38;6.63;;;5.35;;
39882;SDS011;55824;52.220;21.040;2022-12-07T00:31:05;6.95;;;5.80;;
39882;SDS011;55824;52.220;21.040;2022-12-07T00:33:32;6.55;;;5.78;;
39882;SDS011;55824;52.220;21.040;2022-12-07T00:35:59;6.57;;;5.85;;
39882;SDS011;55824;52.220;21.040;2022-12-07T00:38:26;6.88;;;5.35;;
39882;SDS011;55824;52.220;21.040;2022-12-07T00:40:56;6.65;;;5.65;;
39882;SDS011;55824;52.220;21.040;2022-12-07T00:43:22;6.90;;;5.63;;
39882;SDS011;55824;52.220;21.040;2022-12-07T00:45:48;7.45;;;5.97;;
39882;SDS011;55824;52.220;21.040;2022-12-07T00:48:15;7.20;;;6.43;;
39882;SDS011;55824;52.220;21.040;2022-12-07T00:50:41;7.40;;;5.78;;
39882;SDS011;55824;52.220;21.040;2022-12-07T00:53:07;7.13;;;5.82;;
39882;SDS011;55824;52.220;21.040;2022-12-07T00:55:34;6.85;;;5.95;;
39882;SDS011;55824;52.220;21.040;2022-12-07T00:58:00;6.60;;;5.90;;
39882;SDS011;55824;52.220;21.040;2022-12-07T01:00:26;7.43;;;6.60;;
39882;SDS011;55824;52.220;21.040;2022-12-07T01:02:52;8.18;;;6.28;;
39882;SDS011;55824;52.220;21.040;2022-12-07T01:05:18;7.40;;;6.60;;
39882;SDS011;55824;52.220;21.040;2022-12-07T01:07:44;7.97;;;5.88;;
39882;SDS011;55824;52.220;21.040;2022-12-07T01:10:11;7.32;;;6.18;;
39882;SDS011;55824;52.220;21.040;2022-12-07T01:12:37;8.65;;;6.95;;
39882;SDS011;55824;52.220;21.040;2022-12-07T01:15:07;7.95;;;6.47;;
39882;SDS011;55824;52.220;21.040;2022-12-07T01:17:33;7.70;;;6.22;;
39882;SDS011;55824;52.220;21.040;2022-12-07T01:20:00;8.07;;;6.95;;
39882;SDS011;55824;52.220;21.040;2022-12-07T01:22:30;8.93;;;7.28;;
39882;SDS011;55824;52.220;21.040;2022-12-07T01:24:56;9.10;;;7.35;;
39882;SDS011;55824;52.220;21.040;2022-12-07T01:27:22;8.40;;;7.30;;
39882;SDS011;55824;52.220;21.040;2022-12-07T01:29:48;8.73;;;7.18;;
39882;SDS011;55824;52.220;21.040;2022-12-07T01:32:14;9.23;;;7.50;;
39882;SDS011;55824;52.220;21.040;2022-12-07T01:34:40;8.38;;;7.22;;
39882;SDS011;55824;52.220;21.040;2022-12-07T01:37:06;8.80;;;7.63;;
39882;SDS011;55824;52.220;21.040;2022-12-07T01:39:32;7.55;;;6.68;;
39882;SDS011;55824;52.220;21.040;2022-12-07T01:41:58;7.68;;;6.78;;
39882;SDS011;55824;52.220;21.040;2022-12-07T01:44:25;7.88;;;7.05;;
39882;SDS011;55824;52.220;21.040;2022-12-07T01:46:53;8.32;;;7.15;;
39882;SDS011;55824;52.220;21.040;2022-12-07T01:51:46;8.25;;;6.85;;
39882;SDS011;55824;52.220;21.040;2022-12-07T01:54:13;8.20;;;7.10;;
39882;SDS011;55824;52.220;21.040;2022-12-07T01:56:40;8.90;;;7.55;;
39882;SDS011;55824;52.220;21.040;2022-12-07T01:59:08;7.03;;;6.32;;
39882;SDS011;55824;52.220;21.040;2022-12-07T02:01:34;7.78;;;6.97;;
39882;SDS011;55824;52.220;21.040;2022-12-07T02:04:00;8.95;;;7.70;;
39882;SDS011;55824;52.220;21.040;2022-12-07T02:06:26;8.20;;;7.25;;
39882;SDS011;55824;52.220;21.040;2022-12-07T02:08:52;8.13;;;7.05;;
39882;SDS011;55824;52.220;21.040;2022-12-07T02:11:19;9.40;;;7.47;;
39882;SDS011;55824;52.220;21.040;2022-12-07T02:13:45;8.35;;;7.10;;
39882;SDS011;55824;52.220;21.040;2022-12-07T02:18:59;10.18;;;7.57;;
39882;SDS011;55824;52.220;21.040;2022-12-07T02:21:33;7.82;;;6.95;;
39882;SDS011;55824;52.220;21.040;2022-12-07T02:31:42;8.13;;;7.17;;
39882;SDS011;55824;52.220;21.040;2022-12-07T02:34:11;7.57;;;6.50;;
39882;SDS011;55824;52.220;21.040;2022-12-07T02:36:43;7.50;;;6.53;;
39882;SDS011;55824;52.220;21.040;2022-12-07T02:42:01;7.22;;;5.65;;
39882;SDS011;55824;52.220;21.040;2022-12-07T02:44:25;7.38;;;6.25;;
39882;SDS011;55824;52.220;21.040;2022-12-07T02:46:55;6.95;;;6.05;;
39882;SDS011;55824;52.220;21.040;2022-12-07T02:49:22;10.73;;;6.63;;
39882;SDS011;55824;52.220;21.040;2022-12-07T02:51:49;8.25;;;6.25;;
39882;SDS011;55824;52.220;21.040;2022-12-07T02:54:17;7.57;;;5.60;;
39882;SDS011;55824;52.220;21.040;2022-12-07T03:06:37;7.13;;;6.15;;
39882;SDS011;55824;52.220;21.040;2022-12-07T03:11:34;5.57;;;5.07;;
39882;SDS011;55824;52.220;21.040;2022-12-07T03:14:07;7.07;;;5.63;;
39882;SDS011;55824;52.220;21.040;2022-12-07T03:16:37;6.93;;;5.80;;
39882;SDS011;55824;52.220;21.040;2022-12-07T03:19:13;6.88;;;5.55;;
39882;SDS011;55824;52.220;21.040;2022-12-07T03:21:46;7.13;;;5.65;;
39882;SDS011;55824;52.220;21.040;2022-12-07T03:24:15;5.65;;;4.78;;
39882;SDS011;55824;52.220;21.040;2022-12-07T03:26:44;7.50;;;5.57;;
39882;SDS011;55824;52.220;21.040;2022-12-07T03:29:22;6.20;;;4.85;;
39882;SDS011;55824;52.220;21.040;2022-12-07T03:32:04;7.28;;;5.60;;
39882;SDS011;55824;52.220;21.040;2022-12-07T03:34:32;6.47;;;4.90;;
39882;SDS011;55824;52.220;21.040;2022-12-07T03:37:08;6.78;;;5.10;;
39882;SDS011;55824;52.220;21.040;2022-12-07T03:39:37;5.97;;;5.30;;
39882;SDS011;55824;52.220;21.040;2022-12-07T03:44:31;6.65;;;5.47;;
39882;SDS011;55824;52.220;21.040;2022-12-07T03:47:02;7.30;;;5.13;;
39882;SDS011;55824;52.220;21.040;2022-12-07T03:52:11;7.40;;;4.68;;
39882;SDS011;55824;52.220;21.040;2022-12-07T03:54:56;6.20;;;5.00;;
39882;SDS011;55824;52.220;21.040;2022-12-07T03:57:24;5.50;;;4.50;;
39882;SDS011;55824;52.220;21.040;2022-12-07T03:59:50;6.20;;;4.85;;
39882;SDS011;55824;52.220;21.040;2022-12-07T04:02:17;5.55;;;4.78;;
39882;SDS011;55824;52.220;21.040;2022-12-07T04:04:43;5.78;;;4.60;;
39882;SDS011;55824;52.220;21.040;2022-12-07T04:07:09;5.93;;;4.20;;
39882;SDS011;55824;52.220;21.040;2022-12-07T04:09:35;5.18;;;3.92;;
39882;SDS011;55824;52.220;21.040;2022-12-07T04:12:02;4.57;;;4.07;;
39882;SDS011;55824;52.220;21.040;2022-12-07T04:14:28;5.20;;;4.55;;
39882;SDS011;55824;52.220;21.040;2022-12-07T04:16:54;5.85;;;4.15;;
39882;SDS011;55824;52.220;21.040;2022-12-07T04:19:24;4.80;;;4.13;;
39882;SDS011;55824;52.220;21.040;2022-12-07T04:21:51;5.50;;;3.97;;
39882;SDS011;55824;52.220;21.040;2022-12-07T04:24:17;5.45;;;4.38;;
39882;SDS011;55824;52.220;21.040;2022-12-07T04:26:43;5.53;;;4.10;;
39882;SDS011;55824;52.220;21.040;2022-12-07T04:29:09;5.93;;;4.18;;
39882;SDS011;55824;52.220;21.040;2022-12-07T04:31:36;5.18;;;3.95;;
39882;SDS011;55824;52.220;21.040;2022-12-07T04:34:02;5.30;;;3.95;;
39882;SDS011;55824;52.220;21.040;2022-12-07T04:36:28;4.82;;;3.70;;
39882;SDS011;55824;52.220;21.040;2022-12-07T04:38:54;5.40;;;4.00;;
39882;SDS011;55824;52.220;21.040;2022-12-07T04:41:21;5.35;;;4.07;;
39882;SDS011;55824;52.220;21.040;2022-12-07T04:43:54;5.00;;;3.97;;
39882;SDS011;55824;52.220;21.040;2022-12-07T04:46:21;5.00;;;4.03;;
39882;SDS011;55824;52.220;21.040;2022-12-07T04:48:47;4.50;;;3.75;;
39882;SDS011;55824;52.220;21.040;2022-12-07T04:51:14;5.72;;;3.88;;
39882;SDS011;55824;52.220;21.040;2022-12-07T04:53:41;4.45;;;3.50;;
39882;SDS011;55824;52.220;21.040;2022-12-07T04:56:07;4.90;;;3.72;;
39882;SDS011;55824;52.220;21.040;2022-12-07T04:58:33;4.30;;;3.28;;
39882;SDS011;55824;52.220;21.040;2022-12-07T05:00:59;4.93;;;3.90;;
39882;SDS011;55824;52.220;21.040;2022-12-07T05:03:25;5.47;;;3.80;;
39882;SDS011;55824;52.220;21.040;2022-12-07T05:05:51;4.80;;;3.50;;
39882;SDS011;55824;52.220;21.040;2022-12-07T05:08:17;4.95;;;3.60;;
39882;SDS011;55824;52.220;21.040;2022-12-07T05:10:43;5.13;;;3.80;;
39882;SDS011;55824;52.220;21.040;2022-12-07T05:13:09;4.65;;;3.35;;
39882;SDS011;55824;52.220;21.040;2022-12-07T05:15:35;4.40;;;3.40;;
39882;SDS011;55824;52.220;21.040;2022-12-07T05:18:01;4.53;;;3.42;;
39882;SDS011;55824;52.220;21.040;2022-12-07T05:20:28;3.88;;;3.13;;
39882;SDS011;55824;52.220;21.040;2022-12-07T05:22:54;3.50;;;2.88;;
39882;SDS011;55824;52.220;21.040;2022-12-07T05:25:20;4.70;;;3.33;;
39882;SDS011;55824;52.220;21.040;2022-12-07T05:27:46;5.13;;;3.05;;
39882;SDS011;55824;52.220;21.040;2022-12-07T05:30:12;4.68;;;3.35;;
39882;SDS011;55824;52.220;21.040;2022-12-07T05:32:38;4.32;;;2.97;;
39882;SDS011;55824;52.220;21.040;2022-12-07T05:35:04;4.00;;;3.00;;
39882;SDS011;55824;52.220;21.040;2022-12-07T05:37:30;5.00;;;3.40;;
39882;SDS011;55824;52.220;21.040;2022-12-07T05:39:56;3.75;;;2.80;;
39882;SDS011;55824;52.220;21.040;2022-12-07T05:42:23;5.18;;;3.30;;
39882;SDS011;55824;52.220;21.040;2022-12-07T05:44:49;4.95;;;3.10;;
39882;SDS011;55824;52.220;21.040;2022-12-07T05:47:16;3.65;;;3.00;;
39882;SDS011;55824;52.220;21.040;2022-12-07T05:49:42;3.78;;;2.92;;
39882;SDS011;55824;52.220;21.040;2022-12-07T05:52:08;4.78;;;3.22;;
39882;SDS011;55824;52.220;21.040;2022-12-07T05:54:34;4.20;;;3.15;;
39882;SDS011;55824;52.220;21.040;2022-12-07T05:57:00;3.80;;;2.90;;
39882;SDS011;55824;52.220;21.040;2022-12-07T05:59:26;3.72;;;2.95;;
39882;SDS011;55824;52.220;21.040;2022-12-07T06:01:59;4.30;;;3.00;;
39882;SDS011;55824;52.220;21.040;2022-12-07T06:04:26;3.38;;;2.63;;
39882;SDS011;55824;52.220;21.040;2022-12-07T06:06:57;3.50;;;2.65;;
39882;SDS011;55824;52.220;21.040;2022-12-07T06:09:23;4.40;;;3.20;;
39882;SDS011;55824;52.220;21.040;2022-12-07T06:11:49;3.88;;;2.70;;
39882;SDS011;55824;52.220;21.040;2022-12-07T06:14:34;4.43;;;2.72;;
39882;SDS011;55824;52.220;21.040;2022-12-07T06:17:00;4.00;;;3.10;;
39882;SDS011;55824;52.220;21.040;2022-12-07T06:19:26;3.20;;;2.60;;
39882;SDS011;55824;52.220;21.040;2022-12-07T06:21:53;3.55;;;2.67;;
39882;SDS011;55824;52.220;21.040;2022-12-07T06:24:19;3.85;;;3.00;;
39882;SDS011;55824;52.220;21.040;2022-12-07T06:26:46;4.53;;;3.03;;
39882;SDS011;55824;52.220;21.040;2022-12-07T06:29:12;3.50;;;2.80;;
39882;SDS011;55824;52.220;21.040;2022-12-07T06:31:38;3.45;;;2.70;;
39882;SDS011;55824;52.220;21.040;2022-12-07T06:34:05;4.25;;;3.05;;
39882;SDS011;55824;52.220;21.040;2022-12-07T06:36:32;3.95;;;2.80;;
39882;SDS011;55824;52.220;21.040;2022-12-07T06:38:58;3.47;;;2.67;;
39882;SDS011;55824;52.220;21.040;2022-12-07T06:41:24;3.85;;;2.63;;
39882;SDS011;55824;52.220;21.040;2022-12-07T06:43:50;3.67;;;2.97;;
39882;SDS011;55824;52.220;21.040;2022-12-07T06:46:16;3.75;;;2.40;;
39882;SDS011;55824;52.220;21.040;2022-12-07T06:48:43;3.75;;;2.50;;
39882;SDS011;55824;52.220;21.040;2022-12-07T06:51:09;3.83;;;2.60;;
39882;SDS011;55824;52.220;21.040;2022-12-07T06:53:35;3.78;;;2.60;;
39882;SDS011;55824;52.220;21.040;2022-12-07T06:56:01;3.50;;;2.60;;
39882;SDS011;55824;52.220;21.040;2022-12-07T06:58:27;3.60;;;2.47;;
39882;SDS011;55824;52.220;21.040;2022-12-07T07:00:53;4.78;;;2.85;;
39882;SDS011;55824;52.220;21.040;2022-12-07T07:03:19;5.47;;;2.97;;
39882;SDS011;55824;52.220;21.040;2022-12-07T07:05:46;3.83;;;2.67;;
39882;SDS011;55824;52.220;21.040;2022-12-07T07:08:12;4.88;;;2.97;;
39882;SDS011;55824;52.220;21.040;2022-12-07T07:10:38;3.58;;;2.67;;
39882;SDS011;55824;52.220;21.040;2022-12-07T07:13:04;4.40;;;2.72;;
39882;SDS011;55824;52.220;21.040;2022-12-07T07:15:31;5.78;;;2.58;;
39882;SDS011;55824;52.220;21.040;2022-12-07T07:17:57;4.53;;;2.60;;
39882;SDS011;55824;52.220;21.040;2022-12-07T07:20:23;3.88;;;2.85;;
39882;SDS011;55824;52.220;21.040;2022-12-07T07:22:49;5.28;;;2.55;;
39882;SDS011;55824;52.220;21.040;2022-12-07T07:25:15;4.55;;;2.72;;
39882;SDS011;55824;52.220;21.040;2022-12-07T07:27:41;4.55;;;2.50;;
39882;SDS011;55824;52.220;21.040;2022-12-07T07:30:07;4.63;;;2.40;;
39882;SDS011;55824;52.220;21.040;2022-12-07T07:32:34;2.42;;;2.10;;
39882;SDS011;55824;52.220;21.040;2022-12-07T07:35:00;4.13;;;2.65;;
39882;SDS011;55824;52.220;21.040;2022-12-07T07:37:26;4.60;;;3.05;;
39882;SDS011;55824;52.220;21.040;2022-12-07T07:39:52;4.28;;;2.70;;
39882;SDS011;55824;52.220;21.040;2022-12-07T07:42:18;3.05;;;2.30;;
39882;SDS011;55824;52.220;21.040;2022-12-07T07:44:44;4.28;;;2.38;;
39882;SDS011;55824;52.220;21.040;2022-12-07T07:47:10;2.83;;;2.38;;
39882;SDS011;55824;52.220;21.040;2022-12-07T07:49:36;4.28;;;2.42;;
39882;SDS011;55824;52.220;21.040;2022-12-07T07:52:02;3.83;;;2.75;;
39882;SDS011;55824;52.220;21.040;2022-12-07T07:54:28;3.20;;;2.58;;
39882;SDS011;55824;52.220;21.040;2022-12-07T07:56:54;2.70;;;2.17;;
39882;SDS011;55824;52.220;21.040;2022-12-07T07:59:20;3.55;;;2.47;;
39882;SDS011;55824;52.220;21.040;2022-12-07T08:01:46;3.45;;;2.42;;
39882;SDS011;55824;52.220;21.040;2022-12-07T08:04:12;3.85;;;2.58;;
39882;SDS011;55824;52.220;21.040;2022-12-07T08:06:38;2.95;;;2.17;;
39882;SDS011;55824;52.220;21.040;2022-12-07T08:09:06;3.60;;;2.63;;
39882;SDS011;55824;52.220;21.040;2022-12-07T08:11:33;3.40;;;2.47;;
39882;SDS011;55824;52.220;21.040;2022-12-07T08:13:59;3.80;;;2.60;;
39882;SDS011;55824;52.220;21.040;2022-12-07T08:16:25;3.92;;;2.13;;
39882;SDS011;55824;52.220;21.040;2022-12-07T08:18:51;3.38;;;2.45;;
39882;SDS011;55824;52.220;21.040;2022-12-07T08:21:17;3.67;;;2.58;;
39882;SDS011;55824;52.220;21.040;2022-12-07T08:23:43;3.13;;;2.17;;
39882;SDS011;55824;52.220;21.040;2022-12-07T08:26:10;3.45;;;2.22;;
39882;SDS011;55824;52.220;21.040;2022-12-07T08:28:37;4.18;;;2.65;;
39882;SDS011;55824;52.220;21.040;2022-12-07T08:31:04;2.78;;;2.25;;
39882;SDS011;55824;52.220;21.040;2022-12-07T08:33:30;2.70;;;2.08;;
39882;SDS011;55824;52.220;21.040;2022-12-07T08:36:03;2.83;;;2.03;;
39882;SDS011;55824;52.220;21.040;2022-12-07T08:38:29;3.28;;;2.30;;
39882;SDS011;55824;52.220;21.040;2022-12-07T08:40:56;2.55;;;2.00;;
39882;SDS011;55824;52.220;21.040;2022-12-07T08:43:22;3.67;;;2.53;;
39882;SDS011;55824;52.220;21.040;2022-12-07T08:45:48;5.15;;;2.53;;
39882;SDS011;55824;52.220;21.040;2022-12-07T08:48:17;3.88;;;2.42;;
39882;SDS011;55824;52.220;21.040;2022-12-07T08:53:12;3.47;;;2.70;;
39882;SDS011;55824;52.220;21.040;2022-12-07T08:55:38;3.97;;;2.80;;
39882;SDS011;55824;52.220;21.040;2022-12-07T08:58:04;4.93;;;2.63;;
39882;SDS011;55824;52.220;21.040;2022-12-07T09:00:30;3.50;;;2.45;;
39882;SDS011;55824;52.220;21.040;2022-12-07T09:02:56;4.25;;;2.83;;
39882;SDS011;55824;52.220;21.040;2022-12-07T09:05:22;3.67;;;2.45;;
39882;SDS011;55824;52.220;21.040;2022-12-07T09:07:49;3.13;;;2.45;;
39882;SDS011;55824;52.220;21.040;2022-12-07T09:10:17;4.85;;;2.85;;
39882;SDS011;55824;52.220;21.040;2022-12-07T09:12:43;3.35;;;2.70;;
39882;SDS011;55824;52.220;21.040;2022-12-07T09:15:09;3.80;;;2.72;;
39882;SDS011;55824;52.220;21.040;2022-12-07T09:17:35;3.97;;;2.70;;
39882;SDS011;55824;52.220;21.040;2022-12-07T09:20:02;4.18;;;2.63;;
39882;SDS011;55824;52.220;21.040;2022-12-07T09:22:29;3.30;;;2.83;;
39882;SDS011;55824;52.220;21.040;2022-12-07T09:24:55;4.60;;;3.05;;
39882;SDS011;55824;52.220;21.040;2022-12-07T09:27:21;3.50;;;2.55;;
39882;SDS011;55824;52.220;21.040;2022-12-07T09:29:47;3.60;;;2.70;;
39882;SDS011;55824;52.220;21.040;2022-12-07T09:32:13;3.58;;;2.65;;
39882;SDS011;55824;52.220;21.040;2022-12-07T09:34:39;3.47;;;2.63;;
39882;SDS011;55824;52.220;21.040;2022-12-07T09:37:05;3.60;;;2.53;;
39882;SDS011;55824;52.220;21.040;2022-12-07T09:39:31;3.83;;;2.75;;
39882;SDS011;55824;52.220;21.040;2022-12-07T09:41:58;3.43;;;2.67;;
39882;SDS011;55824;52.220;21.040;2022-12-07T09:44:25;4.72;;;3.22;;
39882;SDS011;55824;52.220;21.040;2022-12-07T09:46:52;4.70;;;2.75;;
39882;SDS011;55824;52.220;21.040;2022-12-07T09:49:22;3.95;;;2.80;;
39882;SDS011;55824;52.220;21.040;2022-12-07T09:52:26;4.50;;;2.70;;
39882;SDS011;55824;52.220;21.040;2022-12-07T09:54:46;3.78;;;2.60;;
39882;SDS011;55824;52.220;21.040;2022-12-07T09:57:12;4.22;;;2.92;;
39882;SDS011;55824;52.220;21.040;2022-12-07T09:59:38;4.18;;;3.03;;
39882;SDS011;55824;52.220;21.040;2022-12-07T10:02:19;4.22;;;2.90;;
39882;SDS011;55824;52.220;21.040;2022-12-07T10:04:47;4.07;;;2.72;;
39882;SDS011;55824;52.220;21.040;2022-12-07T10:07:13;5.10;;;3.10;;
39882;SDS011;55824;52.220;21.040;2022-12-07T10:09:39;4.47;;;2.90;;
39882;SDS011;55824;52.220;21.040;2022-12-07T10:12:09;4.90;;;3.15;;
39882;SDS011;55824;52.220;21.040;2022-12-07T10:14:40;4.57;;;2.85;;
39882;SDS011;55824;52.220;21.040;2022-12-07T10:18:00;4.28;;;2.72;;
39882;SDS011;55824;52.220;21.040;2022-12-07T10:22:34;4.22;;;3.17;;
39882;SDS011;55824;52.220;21.040;2022-12-07T10:25:07;4.63;;;2.80;;
39882;SDS011;55824;52.220;21.040;2022-12-07T10:27:33;3.95;;;2.65;;
39882;SDS011;55824;52.220;21.040;2022-12-07T10:29:59;4.78;;;2.58;;
39882;SDS011;55824;52.220;21.040;2022-12-07T10:34:51;4.25;;;2.80;;
39882;SDS011;55824;52.220;21.040;2022-12-07T10:37:40;4.32;;;3.05;;
39882;SDS011;55824;52.220;21.040;2022-12-07T10:40:23;5.18;;;3.60;;
39882;SDS011;55824;52.220;21.040;2022-12-07T10:43:00;3.72;;;2.83;;
39882;SDS011;55824;52.220;21.040;2022-12-07T10:45:26;4.82;;;3.10;;
39882;SDS011;55824;52.220;21.040;2022-12-07T11:01:11;4.75;;;2.92;;
39882;SDS011;55824;52.220;21.040;2022-12-07T11:06:27;4.25;;;2.70;;
39882;SDS011;55824;52.220;21.040;2022-12-07T11:14:01;4.03;;;2.67;;
39882;SDS011;55824;52.220;21.040;2022-12-07T11:24:12;3.50;;;2.47;;
39882;SDS011;55824;52.220;21.040;2022-12-07T11:34:39;4.45;;;2.85;;
39882;SDS011;55824;52.220;21.040;2022-12-07T11:37:20;4.78;;;3.20;;
39882;SDS011;55824;52.220;21.040;2022-12-07T11:39:49;4.15;;;3.00;;
39882;SDS011;55824;52.220;21.040;2022-12-07T11:42:24;4.10;;;2.67;;
39882;SDS011;55824;52.220;21.040;2022-12-07T11:45:12;4.07;;;2.60;;
39882;SDS011;55824;52.220;21.040;2022-12-07T11:55:19;3.67;;;2.55;;
39882;SDS011;55824;52.220;21.040;2022-12-07T11:57:48;3.00;;;2.50;;
39882;SDS011;55824;52.220;21.040;2022-12-07T12:00:16;3.33;;;2.45;;
39882;SDS011;55824;52.220;21.040;2022-12-07T12:05:13;3.97;;;3.08;;
39882;SDS011;55824;52.220;21.040;2022-12-07T12:07:41;4.28;;;2.67;;
39882;SDS011;55824;52.220;21.040;2022-12-07T12:12:43;4.28;;;2.97;;
39882;SDS011;55824;52.220;21.040;2022-12-07T12:23:23;4.18;;;2.80;;
39882;SDS011;55824;52.220;21.040;2022-12-07T12:25:54;3.35;;;2.50;;
39882;SDS011;55824;52.220;21.040;2022-12-07T12:28:36;4.10;;;3.00;;
39882;SDS011;55824;52.220;21.040;2022-12-07T12:31:05;4.10;;;2.65;;
39882;SDS011;55824;52.220;21.040;2022-12-07T12:33:32;4.72;;;2.60;;
39882;SDS011;55824;52.220;21.040;2022-12-07T12:36:18;3.17;;;2.47;;
39882;SDS011;55824;52.220;21.040;2022-12-07T12:46:57;5.00;;;2.85;;
39882;SDS011;55824;52.220;21.040;2022-12-07T12:54:22;3.70;;;2.50;;
39882;SDS011;55824;52.220;21.040;2022-12-07T12:59:36;3.58;;;2.40;;
39882;SDS011;55824;52.220;21.040;2022-12-07T13:02:50;3.72;;;2.75;;
39882;SDS011;55824;52.220;21.040;2022-12-07T13:04:52;3.97;;;2.50;;
39882;SDS011;55824;52.220;21.040;2022-12-07T13:10:02;3.10;;;2.45;;
39882;SDS011;55824;52.220;21.040;2022-12-07T13:12:29;3.80;;;2.70;;
39882;SDS011;55824;52.220;21.040;2022-12-07T13:14:56;4.40;;;2.60;;
39882;SDS011;55824;52.220;21.040;2022-12-07T13:19:59;3.45;;;2.60;;
39882;SDS011;55824;52.220;21.040;2022-12-07T13:27:51;3.47;;;2.40;;
39882;SDS011;55824;52.220;21.040;2022-12-07T13:30:20;3.83;;;2.60;;
39882;SDS011;55824;52.220;21.040;2022-12-07T13:32:53;3.60;;;2.55;;
39882;SDS011;55824;52.220;21.040;2022-12-07T13:35:33;4.35;;;2.92;;
39882;SDS011;55824;52.220;21.040;2022-12-07T13:38:22;3.75;;;2.72;;
39882;SDS011;55824;52.220;21.040;2022-12-07T13:43:42;3.10;;;2.33;;
39882;SDS011;55824;52.220;21.040;2022-12-07T13:46:08;3.55;;;2.47;;
39882;SDS011;55824;52.220;21.040;2022-12-07T13:48:49;3.72;;;2.55;;
39882;SDS011;55824;52.220;21.040;2022-12-07T13:51:23;3.20;;;2.45;;
39882;SDS011;55824;52.220;21.040;2022-12-07T13:53:51;3.85;;;2.60;;
39882;SDS011;55824;52.220;21.040;2022-12-07T13:56:17;3.70;;;2.40;;
39882;SDS011;55824;52.220;21.040;2022-12-07T13:58:43;3.42;;;2.50;;
39882;SDS011;55824;52.220;21.040;2022-12-07T14:01:10;3.88;;;2.50;;
39882;SDS011;55824;52.220;21.040;2022-12-07T14:03:36;3.25;;;2.30;;
39882;SDS011;55824;52.220;21.040;2022-12-07T14:06:05;3.20;;;2.35;;
39882;SDS011;55824;52.220;21.040;2022-12-07T14:08:31;3.78;;;2.63;;
39882;SDS011;55824;52.220;21.040;2022-12-07T14:10:57;3.33;;;2.47;;
39882;SDS011;55824;52.220;21.040;2022-12-07T14:13:31;3.78;;;2.63;;
39882;SDS011;55824;52.220;21.040;2022-12-07T14:16:01;3.20;;;2.47;;
39882;SDS011;55824;52.220;21.040;2022-12-07T14:18:40;3.95;;;2.90;;
39882;SDS011;55824;52.220;21.040;2022-12-07T14:23:36;3.25;;;2.50;;
39882;SDS011;55824;52.220;21.040;2022-12-07T14:26:16;2.85;;;2.03;;
39882;SDS011;55824;52.220;21.040;2022-12-07T14:28:44;3.33;;;2.20;;
39882;SDS011;55824;52.220;21.040;2022-12-07T14:31:15;4.03;;;2.42;;
39882;SDS011;55824;52.220;21.040;2022-12-07T14:33:41;3.58;;;2.50;;
39882;SDS011;55824;52.220;21.040;2022-12-07T14:36:10;2.97;;;2.33;;
39882;SDS011;55824;52.220;21.040;2022-12-07T14:38:37;3.83;;;2.63;;
39882;SDS011;55824;52.220;21.040;2022-12-07T14:41:03;3.92;;;2.60;;
39882;SDS011;55824;52.220;21.040;2022-12-07T14:43:49;3.78;;;2.50;;
39882;SDS011;55824;52.220;21.040;2022-12-07T14:46:15;2.55;;;2.20;;
39882;SDS011;55824;52.220;21.040;2022-12-07T14:48:40;4.50;;;2.75;;
39882;SDS011;55824;52.220;21.040;2022-12-07T14:51:07;3.38;;;2.50;;
39882;SDS011;55824;52.220;21.040;2022-12-07T14:53:35;4.18;;;2.45;;
39882;SDS011;55824;52.220;21.040;2022-12-07T14:56:02;3.67;;;2.28;;
39882;SDS011;55824;52.220;21.040;2022-12-07T14:58:30;2.92;;;2.20;;
39882;SDS011;55824;52.220;21.040;2022-12-07T15:00:57;3.58;;;2.50;;
39882;SDS011;55824;52.220;21.040;2022-12-07T15:03:23;3.05;;;2.30;;
39882;SDS011;55824;52.220;21.040;2022-12-07T15:05:49;3.20;;;2.50;;
39882;SDS011;55824;52.220;21.040;2022-12-07T15:08:15;4.00;;;2.28;;
39882;SDS011;55824;52.220;21.040;2022-12-07T15:10:41;3.42;;;2.28;;
39882;SDS011;55824;52.220;21.040;2022-12-07T15:13:07;3.42;;;2.58;;
39882;SDS011;55824;52.220;21.040;2022-12-07T15:15:52;3.42;;;2.42;;
39882;SDS011;55824;52.220;21.040;2022-12-07T15:18:19;3.85;;;2.40;;
39882;SDS011;55824;52.220;21.040;2022-12-07T15:20:45;4.05;;;2.42;;
39882;SDS011;55824;52.220;21.040;2022-12-07T15:23:11;3.60;;;2.75;;
39882;SDS011;55824;52.220;21.040;2022-12-07T15:25:40;3.92;;;2.65;;
39882;SDS011;55824;52.220;21.040;2022-12-07T15:28:06;3.92;;;2.60;;
39882;SDS011;55824;52.220;21.040;2022-12-07T15:30:32;3.55;;;2.38;;
39882;SDS011;55824;52.220;21.040;2022-12-07T15:32:58;3.35;;;2.47;;
39882;SDS011;55824;52.220;21.040;2022-12-07T15:35:24;3.45;;;2.30;;
39882;SDS011;55824;52.220;21.040;2022-12-07T15:37:50;3.17;;;2.40;;
39882;SDS011;55824;52.220;21.040;2022-12-07T15:40:16;3.13;;;2.13;;
39882;SDS011;55824;52.220;21.040;2022-12-07T15:42:42;3.70;;;2.63;;
39882;SDS011;55824;52.220;21.040;2022-12-07T15:45:08;4.07;;;2.42;;
39882;SDS011;55824;52.220;21.040;2022-12-07T15:47:35;2.85;;;2.40;;
39882;SDS011;55824;52.220;21.040;2022-12-07T15:50:02;3.92;;;3.00;;
39882;SDS011;55824;52.220;21.040;2022-12-07T15:52:29;3.42;;;2.28;;
39882;SDS011;55824;52.220;21.040;2022-12-07T15:54:55;4.03;;;2.60;;
39882;SDS011;55824;52.220;21.040;2022-12-07T15:57:21;4.03;;;2.55;;
39882;SDS011;55824;52.220;21.040;2022-12-07T15:59:47;3.40;;;2.30;;
39882;SDS011;55824;52.220;21.040;2022-12-07T16:02:13;3.50;;;2.42;;
39882;SDS011;55824;52.220;21.040;2022-12-07T16:04:39;3.47;;;2.55;;
39882;SDS011;55824;52.220;21.040;2022-12-07T16:07:05;3.47;;;2.67;;
39882;SDS011;55824;52.220;21.040;2022-12-07T16:09:31;3.30;;;2.50;;
39882;SDS011;55824;52.220;21.040;2022-12-07T16:11:57;3.15;;;2.40;;
39882;SDS011;55824;52.220;21.040;2022-12-07T16:14:23;3.20;;;2.38;;
39882;SDS011;55824;52.220;21.040;2022-12-07T16:16:49;3.53;;;2.58;;
39882;SDS011;55824;52.220;21.040;2022-12-07T16:19:15;3.47;;;2.30;;
39882;SDS011;55824;52.220;21.040;2022-12-07T16:21:41;3.60;;;2.65;;
39882;SDS011;55824;52.220;21.040;2022-12-07T16:24:07;3.75;;;2.70;;
39882;SDS011;55824;52.220;21.040;2022-12-07T16:26:35;3.33;;;2.45;;
39882;SDS011;55824;52.220;21.040;2022-12-07T16:29:01;4.22;;;2.85;;
39882;SDS011;55824;52.220;21.040;2022-12-07T16:31:27;3.58;;;2.45;;
39882;SDS011;55824;52.220;21.040;2022-12-07T16:33:54;3.50;;;2.55;;
39882;SDS011;55824;52.220;21.040;2022-12-07T16:36:21;3.60;;;2.53;;
39882;SDS011;55824;52.220;21.040;2022-12-07T16:38:49;3.90;;;2.60;;
39882;SDS011;55824;52.220;21.040;2022-12-07T16:41:15;4.32;;;2.60;;
39882;SDS011;55824;52.220;21.040;2022-12-07T16:43:41;3.45;;;2.60;;
39882;SDS011;55824;52.220;21.040;2022-12-07T16:46:07;3.75;;;2.55;;
39882;SDS011;55824;52.220;21.040;2022-12-07T16:48:37;3.55;;;2.70;;